createdAt,value
2023-01-19T00:04:26.213Z,1.3
2023-01-19T00:14:28.488Z,1.3
2023-01-19T00:24:30.563Z,1.4
2023-01-19T00:34:33.088Z,1.4
2023-01-19T00:44:35.318Z,1.5
2023-01-19T00:54:37.474Z,1.6
2023-01-19T01:04:40.125Z,1.5
2023-01-19T01:14:42.212Z,1.6
2023-01-19T01:24:43.956Z,1.6
2023-01-19T01:34:46.595Z,1.7
2023-01-19T01:44:48.796Z,1.8
2023-01-19T01:54:51.167Z,1.8
2023-01-19T02:04:53.779Z,1.8
2023-01-19T02:14:55.706Z,1.7
2023-01-19T02:24:58.142Z,1.7
2023-01-19T02:35:00.213Z,1.7
2023-01-19T02:45:02.330Z,1.7
2023-01-19T02:55:04.610Z,1.6
2023-01-19T03:05:06.593Z,1.6
2023-01-19T03:07:44.984Z,1.6
2023-01-19T03:15:18.458Z,1.7
2023-01-19T03:25:21.074Z,1.7
2023-01-19T03:35:23.509Z,1.7
2023-01-19T03:45:25.719Z,1.7
2023-01-19T03:55:27.947Z,1.7
2023-01-19T04:05:30.612Z,1.8
2023-01-19T04:15:33.074Z,1.9
2023-01-19T04:25:36.742Z,1.6
2023-01-19T04:35:37.536Z,1.1
2023-01-19T04:45:39.770Z,0.6
2023-01-19T04:55:42.361Z,0.3
2023-01-19T05:05:44.695Z,0.3
2023-01-19T05:25:49.332Z,0.3
2023-01-19T05:35:51.341Z,0.3
2023-01-19T05:45:53.506Z,0.3
2023-01-19T05:55:55.747Z,0.1
2023-01-19T06:16:00.345Z,0.1
2023-01-19T07:06:11.061Z,0.1
2023-01-19T07:46:20.971Z,0.4
2023-01-19T07:56:23.208Z,0.5
2023-01-19T08:06:25.224Z,0.5
2023-01-19T08:16:27.985Z,0.6
2023-01-19T08:26:29.958Z,0.8
2023-01-19T08:36:32.248Z,1
2023-01-19T08:46:34.949Z,0.9
2023-01-19T08:56:36.981Z,1
2023-01-19T09:06:39.425Z,1.1
2023-01-19T09:16:42.042Z,1.1
2023-01-19T09:26:44.523Z,1.2
2023-01-19T09:56:52.801Z,1.4
2023-01-19T10:06:53.768Z,1.4
2023-01-19T10:16:56.142Z,1.5
2023-01-19T10:26:57.912Z,1.5
2023-01-19T10:36:59.957Z,1.5
2023-01-19T10:47:01.892Z,1.6
2023-01-19T10:57:04.423Z,1.7
2023-01-19T11:07:06.177Z,1.7
2023-01-19T11:27:09.811Z,1.8
2023-01-19T11:37:12.401Z,2.1
2023-01-19T11:47:14.963Z,2.2
2023-01-19T11:57:17.501Z,2.1
2023-01-19T12:07:19.846Z,2.1
2023-01-19T12:17:21.948Z,2.1
2023-01-19T12:27:23.674Z,2.2
2023-01-19T12:37:25.800Z,2.2
2023-01-19T12:47:27.680Z,2.3
2023-01-19T12:57:30.026Z,2.3
2023-01-19T13:07:32.648Z,2.3
2023-01-19T13:17:35.048Z,2.3
2023-01-19T13:27:36.776Z,2.3
2023-01-19T13:37:38.658Z,2.4
2023-01-19T13:47:40.507Z,2.4
2023-01-19T13:57:43.286Z,2.5
2023-01-19T14:17:49.267Z,2.6
2023-01-19T14:27:49.121Z,2.5
2023-01-19T14:37:51.035Z,2.4
2023-01-19T14:47:52.879Z,2.4
2023-01-19T14:57:55.252Z,2.4
2023-01-19T15:07:56.999Z,2.5
2023-01-19T15:17:59.068Z,2.4
2023-01-19T15:38:03.412Z,2.3
2023-01-19T15:48:05.890Z,2.3
2023-01-19T15:58:07.587Z,2.1
2023-01-19T16:08:09.340Z,2
2023-01-19T16:18:11.433Z,1.8
2023-01-19T16:28:13.814Z,1.8
2023-01-19T16:38:15.943Z,1.8
2023-01-19T16:48:18.606Z,1.7
2023-01-19T16:58:20.403Z,1.6
2023-01-19T17:08:22.305Z,1.5
2023-01-19T17:18:24.523Z,1.5
2023-01-19T17:28:26.731Z,1.4
2023-01-19T17:38:28.741Z,1.3
2023-01-19T17:58:33.027Z,1.3
2023-01-19T18:08:35.248Z,1.2
2023-01-19T18:18:37.173Z,1.2
2023-01-19T18:28:39.256Z,1.1
2023-01-19T18:38:41.152Z,1
2023-01-19T18:48:43.640Z,1.1
2023-01-19T18:58:45.468Z,1.2
2023-01-19T19:08:47.658Z,1.2
2023-01-19T19:18:49.435Z,1.3
2023-01-19T19:28:51.467Z,1.3
2023-01-19T19:38:54.048Z,1.4
2023-01-19T19:48:55.827Z,1.4
2023-01-19T19:58:58.240Z,1.4
2023-01-19T20:09:00.270Z,1.5
2023-01-19T20:19:02.070Z,1.5
2023-01-19T20:29:04.473Z,1.5
2023-01-19T20:39:06.536Z,1.5
2023-01-19T20:49:08.336Z,1.5
2023-01-19T20:59:10.045Z,1.4
2023-01-19T21:09:12.672Z,1.5
2023-01-19T21:19:15.315Z,1.5
2023-01-19T21:29:17.437Z,1.5
2023-01-19T21:39:19.167Z,1.5
2023-01-19T21:49:21.629Z,1.6
2023-01-19T21:59:24.197Z,1.6
2023-01-19T22:09:26.653Z,1.6
2023-01-19T22:19:28.690Z,1.6
2023-01-19T22:39:33.492Z,1.6
2023-01-19T22:49:36.070Z,1.6
2023-01-19T22:59:37.993Z,1.6
2023-01-19T23:09:39.744Z,1.6
2023-01-19T23:19:41.830Z,1.5
2023-01-19T23:29:43.917Z,1.5
2023-01-19T23:39:45.725Z,1.5
2023-01-19T23:59:49.352Z,1.4
